createdAt,value
2022-10-23T00:00:39.565Z,10.33
2022-10-23T00:03:06.566Z,10.30
2022-10-23T00:05:33.809Z,10.30
2022-10-23T00:08:00.840Z,10.29
2022-10-23T00:10:28.448Z,10.29
2022-10-23T00:12:55.005Z,10.31
2022-10-23T00:15:22.949Z,10.30
2022-10-23T00:17:49.622Z,10.32
2022-10-23T00:20:17.425Z,10.37
2022-10-23T00:22:44.016Z,10.39
2022-10-23T00:25:10.979Z,10.44
2022-10-23T00:27:37.714Z,10.48
2022-10-23T00:30:05.779Z,10.49
2022-10-23T00:35:04.770Z,10.64
2022-10-23T00:37:31.433Z,10.66
2022-10-23T00:39:58.189Z,10.75
2022-10-23T00:42:27.130Z,10.76
2022-10-23T00:45:14.103Z,10.78
2022-10-23T00:47:40.749Z,10.75
2022-10-23T00:50:07.650Z,10.81
2022-10-23T00:52:37.732Z,10.79
2022-10-23T00:55:04.894Z,10.79
2022-10-23T00:57:31.612Z,10.74
2022-10-23T00:59:58.201Z,10.75
2022-10-23T01:02:24.897Z,10.72
2022-10-23T01:04:51.686Z,10.76
2022-10-23T01:07:27.108Z,10.76
2022-10-23T01:10:14.661Z,10.84
2022-10-23T01:13:19.677Z,10.89
2022-10-23T01:15:54.184Z,10.83
2022-10-23T01:18:40.873Z,10.76
2022-10-23T01:21:15.338Z,10.69
2022-10-23T01:23:53.345Z,10.66
2022-10-23T01:26:29.910Z,10.57
2022-10-23T01:29:03.240Z,10.58
2022-10-23T01:31:37.353Z,10.54
2022-10-23T01:34:10.207Z,10.72
2022-10-23T01:36:42.219Z,10.70
2022-10-23T01:39:12.508Z,10.62
2022-10-23T01:41:47.479Z,10.59
2022-10-23T01:44:22.343Z,10.62
2022-10-23T01:46:50.099Z,10.66
2022-10-23T01:49:17.792Z,10.59
2022-10-23T01:51:49.949Z,10.92
2022-10-23T01:54:17.429Z,10.92
2022-10-23T01:56:47.298Z,11.00
2022-10-23T01:59:17.103Z,10.86
2022-10-23T02:01:46.715Z,10.72
2022-10-23T02:04:17.724Z,10.73
2022-10-23T02:06:44.307Z,10.77
2022-10-23T02:09:11.219Z,10.84
2022-10-23T02:11:51.077Z,10.95
2022-10-23T02:14:44.484Z,10.89
2022-10-23T02:17:36.863Z,10.74
2022-10-23T02:20:14.215Z,10.67
2022-10-23T02:22:46.223Z,10.57
2022-10-23T02:25:19.808Z,10.53
2022-10-23T02:27:50.917Z,10.62
2022-10-23T02:30:19.823Z,10.67
2022-10-23T02:32:54.498Z,10.77
2022-10-23T02:35:23.687Z,10.60
2022-10-23T02:37:59.987Z,10.47
2022-10-23T02:40:36.718Z,10.41
2022-10-23T02:43:11.179Z,10.67
2022-10-23T02:45:46.558Z,10.63
2022-10-23T02:48:19.442Z,10.56
2022-10-23T02:50:54.429Z,10.67
2022-10-23T02:53:42.414Z,10.67
2022-10-23T02:56:45.474Z,10.60
2022-10-23T02:59:18.078Z,10.54
2022-10-23T03:01:53.038Z,10.87
2022-10-23T03:04:24.161Z,10.69
2022-10-23T03:06:51.458Z,10.56
2022-10-23T03:09:18.604Z,10.50
2022-10-23T03:11:45.318Z,10.65
2022-10-23T03:14:13.267Z,10.71
2022-10-23T03:16:39.814Z,10.73
2022-10-23T03:19:08.872Z,10.63
2022-10-23T03:21:35.656Z,10.76
2022-10-23T03:24:06.178Z,10.71
2022-10-23T03:26:37.957Z,10.61
2022-10-23T03:29:04.712Z,10.55
2022-10-23T03:31:31.358Z,10.54
2022-10-23T03:33:59.788Z,10.66
2022-10-23T03:36:26.362Z,10.60
2022-10-23T03:38:53.313Z,10.65
2022-10-23T03:41:20.798Z,10.56
2022-10-23T03:43:47.612Z,10.58
2022-10-23T03:46:14.258Z,10.76
2022-10-23T03:48:42.022Z,10.68
2022-10-23T03:51:08.613Z,10.63
2022-10-23T03:53:35.218Z,10.69
2022-10-23T03:56:04.548Z,10.61
2022-10-23T03:58:33.168Z,10.60
2022-10-23T04:00:59.865Z,10.60
2022-10-23T04:03:27.391Z,10.59
2022-10-23T04:05:54.007Z,10.66
2022-10-23T04:08:22.298Z,10.89
2022-10-23T04:10:51.980Z,10.81
2022-10-23T04:13:23.807Z,10.77
2022-10-23T04:15:52.091Z,10.72
2022-10-23T04:18:18.786Z,10.69
2022-10-23T04:20:51.281Z,10.70
2022-10-23T04:23:18.190Z,10.63
2022-10-23T04:28:14.334Z,10.77
2022-10-23T04:30:41.684Z,10.70
2022-10-23T04:33:10.598Z,10.58
2022-10-23T04:35:37.388Z,10.62
2022-10-23T04:38:04.008Z,10.57
2022-10-23T04:40:34.146Z,10.52
2022-10-23T04:43:00.835Z,10.58
2022-10-23T04:45:31.725Z,10.68
2022-10-23T04:47:58.324Z,10.63
2022-10-23T04:50:25.538Z,10.81
2022-10-23T04:53:27.041Z,10.82
2022-10-23T04:56:22.940Z,10.84
2022-10-23T04:58:55.290Z,10.79
2022-10-23T05:01:24.256Z,10.70
2022-10-23T05:03:51.237Z,10.71
2022-10-23T05:06:18.186Z,10.87
2022-10-23T05:09:14.201Z,10.96
2022-10-23T05:12:06.434Z,10.79
2022-10-23T05:14:33.081Z,10.79
2022-10-23T05:17:04.363Z,10.91
2022-10-23T05:19:38.352Z,10.91
2022-10-23T05:22:05.193Z,10.91
2022-10-23T05:24:49.670Z,10.80
2022-10-23T05:27:20.217Z,10.81
2022-10-23T05:29:46.873Z,10.78
2022-10-23T05:32:14.668Z,10.78
2022-10-23T05:34:42.728Z,10.85
2022-10-23T05:37:14.338Z,10.82
2022-10-23T05:39:41.742Z,10.84
2022-10-23T05:42:12.656Z,10.79
2022-10-23T05:44:40.383Z,10.67
2022-10-23T05:47:25.717Z,10.62
2022-10-23T05:49:52.325Z,10.78
2022-10-23T05:52:37.669Z,10.63
2022-10-23T05:55:25.790Z,10.60
2022-10-23T05:58:11.089Z,10.84
2022-10-23T06:01:00.034Z,10.68
2022-10-23T06:03:47.733Z,10.76
2022-10-23T06:06:14.377Z,10.56
2022-10-23T06:08:45.061Z,10.70
2022-10-23T06:11:14.104Z,10.63
2022-10-23T06:13:46.255Z,10.64
2022-10-23T06:16:19.881Z,10.72
2022-10-23T06:18:47.471Z,10.75
2022-10-23T06:21:16.687Z,10.73
2022-10-23T06:23:46.230Z,10.81
2022-10-23T06:26:51.362Z,10.93
2022-10-23T06:29:21.640Z,11.17
2022-10-23T06:31:50.001Z,11.14
2022-10-23T06:34:17.316Z,11.24
2022-10-23T06:36:45.751Z,11.31
2022-10-23T06:39:32.164Z,11.46
2022-10-23T06:42:25.299Z,11.43
2022-10-23T06:44:54.722Z,11.56
2022-10-23T06:47:53.251Z,11.52
2022-10-23T06:50:38.860Z,11.64
2022-10-23T06:53:12.379Z,11.69
2022-10-23T06:55:44.118Z,11.67
2022-10-23T06:58:10.976Z,11.66
2022-10-23T07:00:52.387Z,11.78
2022-10-23T07:03:18.984Z,11.80
2022-10-23T07:05:47.348Z,11.72
2022-10-23T07:08:14.676Z,11.73
2022-10-23T07:10:43.563Z,11.74
2022-10-23T07:13:11.224Z,11.83
2022-10-23T07:15:55.090Z,11.88
2022-10-23T07:18:24.596Z,11.90
2022-10-23T07:21:20.444Z,11.87
2022-10-23T07:23:48.611Z,11.77
2022-10-23T07:26:16.723Z,11.84
2022-10-23T07:28:45.001Z,11.89
2022-10-23T07:31:13.192Z,11.95
2022-10-23T07:34:04.662Z,12.06
2022-10-23T07:36:31.475Z,12.00
2022-10-23T07:38:58.172Z,12.18
2022-10-23T07:41:25.241Z,12.34
2022-10-23T07:43:51.862Z,12.23
2022-10-23T07:46:18.512Z,12.31
2022-10-23T07:48:45.606Z,12.25
2022-10-23T07:51:15.409Z,12.37
2022-10-23T07:53:45.635Z,12.41
2022-10-23T07:56:31.444Z,12.55
2022-10-23T07:59:18.315Z,12.58
2022-10-23T08:01:56.728Z,12.62
2022-10-23T08:04:34.182Z,12.76
2022-10-23T08:07:09.828Z,12.88
2022-10-23T08:09:41.338Z,13.03
2022-10-23T08:12:09.724Z,13.14
2022-10-23T08:14:36.463Z,13.02
2022-10-23T08:17:05.073Z,13.08
2022-10-23T08:19:54.746Z,13.17
2022-10-23T08:22:21.798Z,13.26
2022-10-23T08:24:48.500Z,13.34
2022-10-23T08:27:15.807Z,13.54
2022-10-23T08:29:45.587Z,13.62
2022-10-23T08:32:12.267Z,13.47
2022-10-23T08:34:54.059Z,13.50
2022-10-23T08:37:23.495Z,13.60
2022-10-23T08:39:53.229Z,13.59
2022-10-23T08:42:29.537Z,13.62
2022-10-23T08:45:14.331Z,13.63
2022-10-23T08:47:47.381Z,13.74
2022-10-23T08:50:59.357Z,13.83
2022-10-23T08:54:11.140Z,13.83
2022-10-23T08:56:39.610Z,13.88
2022-10-23T08:59:20.467Z,13.93
2022-10-23T09:01:52.336Z,14.07
2022-10-23T09:04:21.421Z,14.07
2022-10-23T09:06:47.941Z,14.09
2022-10-23T09:09:51.577Z,13.96
2022-10-23T09:12:21.640Z,13.95
2022-10-23T09:15:00.346Z,13.99
2022-10-23T09:17:26.905Z,14.13
2022-10-23T09:20:21.297Z,14.14
2022-10-23T09:22:49.494Z,14.00
2022-10-23T09:25:22.400Z,14.10
2022-10-23T09:27:54.777Z,14.03
2022-10-23T09:30:38.900Z,13.98
2022-10-23T09:33:16.258Z,14.07
2022-10-23T09:36:02.769Z,14.14
2022-10-23T09:38:36.008Z,14.17
2022-10-23T09:41:21.365Z,14.20
2022-10-23T09:43:48.169Z,14.26
2022-10-23T09:46:19.551Z,14.33
2022-10-23T09:48:46.103Z,14.42
2022-10-23T09:51:20.159Z,14.53
2022-10-23T09:53:49.670Z,14.38
2022-10-23T09:56:34.385Z,14.49
2022-10-23T09:59:13.161Z,14.70
2022-10-23T10:02:00.317Z,14.70
2022-10-23T10:04:59.201Z,14.83
2022-10-23T10:07:32.279Z,14.72
2022-10-23T10:10:01.347Z,14.97
2022-10-23T10:12:43.388Z,14.76
2022-10-23T10:15:19.144Z,14.89
2022-10-23T10:18:09.514Z,15.04
2022-10-23T10:20:46.114Z,15.10
2022-10-23T10:23:30.889Z,15.23
2022-10-23T10:26:13.748Z,15.34
2022-10-23T10:29:14.451Z,15.50
2022-10-23T10:31:43.968Z,15.34
2022-10-23T10:34:17.095Z,15.41
2022-10-23T10:36:46.585Z,15.39
2022-10-23T10:39:42.426Z,15.50
2022-10-23T10:42:35.259Z,15.60
2022-10-23T10:45:27.630Z,15.61
2022-10-23T10:48:12.565Z,15.49
2022-10-23T10:51:09.449Z,15.78
2022-10-23T10:54:00.422Z,15.81
2022-10-23T10:56:28.314Z,15.93
2022-10-23T10:59:10.599Z,15.82
2022-10-23T11:01:42.807Z,15.78
2022-10-23T11:04:57.840Z,15.80
2022-10-23T11:07:28.430Z,15.87
2022-10-23T11:09:56.341Z,15.82
2022-10-23T11:12:27.532Z,15.72
2022-10-23T11:14:54.241Z,15.73
2022-10-23T11:17:27.749Z,15.80
2022-10-23T11:20:10.210Z,15.89
2022-10-23T11:22:52.045Z,15.88
2022-10-23T11:25:40.569Z,15.98
2022-10-23T11:28:28.290Z,16.00
2022-10-23T11:31:13.760Z,16.24
2022-10-23T11:33:55.295Z,16.27
2022-10-23T11:36:48.588Z,16.37
2022-10-23T11:39:29.363Z,16.43
2022-10-23T11:42:06.338Z,16.39
2022-10-23T11:44:49.756Z,16.60
2022-10-23T11:47:40.409Z,16.57
2022-10-23T11:50:07.151Z,16.61
2022-10-23T11:52:45.437Z,16.75
2022-10-23T11:55:22.410Z,16.72
2022-10-23T11:58:04.451Z,16.59
2022-10-23T12:00:33.488Z,16.62
2022-10-23T12:03:00.916Z,16.42
2022-10-23T12:05:37.699Z,16.55
2022-10-23T12:08:08.235Z,16.60
2022-10-23T12:10:46.448Z,16.56
2022-10-23T12:13:28.868Z,16.53
2022-10-23T12:15:58.497Z,16.58
2022-10-23T12:18:27.541Z,16.64
2022-10-23T12:20:58.964Z,16.75
2022-10-23T12:23:38.443Z,16.63
2022-10-23T12:26:17.224Z,16.69
2022-10-23T12:28:50.769Z,16.69
2022-10-23T12:31:35.816Z,16.77
2022-10-23T12:34:08.400Z,16.68
2022-10-23T12:36:41.468Z,16.62
2022-10-23T12:39:27.164Z,16.46
2022-10-23T12:41:53.983Z,16.31
2022-10-23T12:44:25.360Z,16.53
2022-10-23T12:46:58.246Z,16.49
2022-10-23T12:49:27.650Z,16.67
2022-10-23T12:52:05.576Z,16.61
2022-10-23T12:54:39.295Z,16.54
2022-10-23T12:57:26.938Z,16.68
2022-10-23T13:00:00.178Z,16.52
2022-10-23T13:02:29.363Z,16.63
2022-10-23T13:04:58.614Z,16.43
2022-10-23T13:07:30.283Z,16.43
2022-10-23T13:10:00.039Z,16.29
2022-10-23T13:12:33.981Z,16.25
2022-10-23T13:15:05.703Z,16.59
2022-10-23T13:17:41.648Z,16.41
2022-10-23T13:20:34.190Z,16.24
2022-10-23T13:23:21.738Z,16.19
2022-10-23T13:26:04.602Z,16.17
2022-10-23T13:28:45.513Z,16.13
2022-10-23T13:31:14.876Z,16.14
2022-10-23T13:34:04.380Z,16.07
2022-10-23T13:36:35.599Z,16.17
2022-10-23T13:39:13.470Z,16.22
2022-10-23T13:41:45.433Z,16.25
2022-10-23T13:44:14.594Z,16.37
2022-10-23T13:46:41.944Z,16.38
2022-10-23T13:49:08.645Z,16.39
2022-10-23T13:51:52.971Z,16.37
2022-10-23T13:54:22.241Z,16.42
2022-10-23T13:56:49.312Z,16.39
2022-10-23T13:59:16.624Z,16.39
2022-10-23T14:01:44.654Z,16.56
2022-10-23T14:04:14.714Z,16.48
2022-10-23T14:06:42.103Z,16.39
2022-10-23T14:09:12.694Z,16.49
2022-10-23T14:11:39.935Z,16.31
2022-10-23T14:14:06.925Z,16.29
2022-10-23T14:16:36.639Z,16.36
2022-10-23T14:19:03.581Z,16.38
2022-10-23T14:21:30.451Z,16.40
2022-10-23T14:23:57.383Z,16.17
2022-10-23T14:26:27.517Z,16.12
2022-10-23T14:28:59.566Z,16.05
2022-10-23T14:31:29.932Z,16.15
2022-10-23T14:33:58.689Z,16.16
2022-10-23T14:36:30.880Z,16.19
2022-10-23T14:39:05.447Z,16.15
2022-10-23T14:41:32.143Z,16.21
2022-10-23T14:43:58.766Z,16.23
2022-10-23T14:46:25.554Z,16.30
2022-10-23T14:48:57.428Z,16.32
2022-10-23T14:51:28.762Z,16.24
2022-10-23T14:53:59.447Z,16.25
2022-10-23T14:56:26.531Z,16.30
2022-10-23T14:58:53.149Z,16.24
2022-10-23T15:01:19.960Z,16.10
2022-10-23T15:03:46.773Z,16.08
2022-10-23T15:06:17.530Z,16.08
2022-10-23T15:08:45.143Z,15.97
2022-10-23T15:11:12.793Z,16.02
2022-10-23T15:13:42.222Z,15.97
2022-10-23T15:16:10.463Z,15.90
2022-10-23T15:21:05.958Z,16.08
2022-10-23T15:23:34.651Z,15.97
2022-10-23T15:26:03.868Z,15.98
2022-10-23T15:28:30.941Z,15.96
2022-10-23T15:30:57.862Z,15.82
2022-10-23T15:33:24.552Z,15.83
2022-10-23T15:35:51.844Z,15.74
2022-10-23T15:38:19.341Z,15.82
2022-10-23T15:40:46.537Z,15.76
2022-10-23T15:43:14.443Z,15.77
2022-10-23T15:45:43.110Z,15.71
2022-10-23T15:48:15.794Z,15.56
2022-10-23T15:50:43.104Z,15.52
2022-10-23T15:53:09.754Z,15.59
2022-10-23T15:55:42.804Z,15.60
2022-10-23T15:58:09.747Z,15.56
2022-10-23T16:00:38.198Z,15.64
2022-10-23T16:03:04.866Z,15.59
2022-10-23T16:05:31.500Z,15.54
2022-10-23T16:08:00.480Z,15.38
2022-10-23T16:10:27.148Z,15.38
2022-10-23T16:12:53.852Z,15.38
2022-10-23T16:15:20.417Z,15.19
2022-10-23T16:17:47.053Z,15.22
2022-10-23T16:20:21.037Z,15.33
2022-10-23T16:22:47.772Z,15.34
2022-10-23T16:25:14.583Z,15.23
2022-10-23T16:27:41.476Z,15.16
2022-10-23T16:30:14.146Z,15.22
2022-10-23T16:32:41.432Z,15.32
2022-10-23T16:35:12.315Z,15.39
2022-10-23T16:37:53.064Z,15.32
2022-10-23T16:40:20.889Z,15.50
2022-10-23T16:43:06.447Z,15.20
2022-10-23T16:45:40.196Z,15.05
2022-10-23T16:48:06.970Z,14.97
2022-10-23T16:50:33.734Z,14.84
2022-10-23T16:53:07.746Z,15.07
2022-10-23T16:55:34.383Z,15.29
2022-10-23T16:58:01.104Z,15.23
2022-10-23T17:00:34.834Z,15.06
2022-10-23T17:03:04.877Z,15.07
2022-10-23T17:05:35.384Z,15.15
2022-10-23T17:08:06.676Z,15.08
2022-10-23T17:10:33.326Z,15.09
2022-10-23T17:13:00.005Z,15.28
2022-10-23T17:15:26.746Z,15.42
2022-10-23T17:17:53.862Z,15.43
2022-10-23T17:20:20.409Z,15.58
2022-10-23T17:22:47.053Z,15.60
2022-10-23T17:25:13.797Z,15.17
2022-10-23T17:27:40.459Z,15.07
2022-10-23T17:30:12.373Z,14.87
2022-10-23T17:32:44.201Z,14.79
2022-10-23T17:35:11.087Z,14.92
2022-10-23T17:37:37.744Z,14.70
2022-10-23T17:40:06.654Z,14.70
2022-10-23T17:42:33.210Z,14.74
2022-10-23T17:44:59.885Z,14.81
2022-10-23T17:47:26.488Z,14.72
2022-10-23T17:49:53.080Z,14.80
2022-10-23T17:52:19.671Z,14.77
2022-10-23T17:54:46.205Z,14.61
2022-10-23T17:57:12.961Z,14.56
2022-10-23T17:59:39.565Z,14.63
2022-10-23T18:02:07.137Z,14.58
2022-10-23T18:04:34.499Z,14.56
2022-10-23T18:07:01.093Z,14.53
2022-10-23T18:09:27.796Z,14.45
2022-10-23T18:11:54.471Z,14.37
2022-10-23T18:14:26.239Z,14.39
2022-10-23T18:16:55.242Z,14.35
2022-10-23T18:19:21.826Z,14.38
2022-10-23T18:21:48.925Z,14.34
2022-10-23T18:24:17.036Z,14.36
2022-10-23T18:26:44.275Z,14.48
2022-10-23T18:29:12.891Z,14.45
2022-10-23T18:31:39.968Z,14.42
2022-10-23T18:34:26.746Z,14.33
2022-10-23T18:36:54.630Z,14.38
2022-10-23T18:39:25.620Z,14.33
2022-10-23T18:41:54.958Z,14.24
2022-10-23T18:44:22.423Z,14.25
2022-10-23T18:46:49.825Z,14.33
2022-10-23T18:49:18.109Z,14.35
2022-10-23T18:51:44.980Z,14.36
2022-10-23T18:54:14.213Z,14.36
2022-10-23T18:56:40.895Z,14.42
2022-10-23T18:59:12.405Z,14.43
2022-10-23T19:01:39.508Z,14.22
2022-10-23T19:04:06.606Z,14.34
2022-10-23T19:06:35.179Z,14.27
2022-10-23T19:09:05.051Z,14.27
2022-10-23T19:11:31.646Z,14.19
2022-10-23T19:14:00.547Z,14.10
2022-10-23T19:16:31.207Z,14.05
2022-10-23T19:19:01.554Z,14.02
2022-10-23T19:21:31.704Z,13.97
2022-10-23T19:24:04.461Z,13.91
2022-10-23T19:26:31.450Z,13.94
2022-10-23T19:28:58.572Z,14.00
2022-10-23T19:31:26.459Z,14.14
2022-10-23T19:33:53.492Z,14.06
2022-10-23T19:36:23.505Z,13.88
2022-10-23T19:38:50.353Z,13.71
2022-10-23T19:41:18.352Z,13.86
2022-10-23T19:43:45.031Z,13.94
2022-10-23T19:46:12.297Z,13.89
2022-10-23T19:48:42.396Z,13.86
2022-10-23T19:51:09.478Z,13.84
2022-10-23T19:53:36.406Z,13.90
2022-10-23T19:56:05.311Z,13.78
2022-10-23T19:58:31.970Z,13.80
2022-10-23T20:00:58.586Z,13.83
2022-10-23T20:03:25.261Z,13.68
2022-10-23T20:05:51.886Z,13.74
2022-10-23T20:08:18.500Z,13.73
2022-10-23T20:10:46.585Z,13.68
2022-10-23T20:13:19.990Z,13.62
2022-10-23T20:15:47.240Z,13.67
2022-10-23T20:18:13.829Z,13.66
2022-10-23T20:20:41.783Z,13.63
2022-10-23T20:23:08.929Z,13.54
2022-10-23T20:25:37.609Z,13.50
2022-10-23T20:28:04.565Z,13.52
2022-10-23T20:30:31.150Z,13.48
2022-10-23T20:32:57.913Z,13.43
2022-10-23T20:35:24.592Z,13.37
2022-10-23T20:37:53.453Z,13.41
2022-10-23T20:40:20.037Z,13.35
2022-10-23T20:42:46.635Z,13.48
2022-10-23T20:45:13.230Z,13.41
2022-10-23T20:47:39.860Z,13.33
2022-10-23T20:50:07.055Z,13.39
2022-10-23T20:55:05.414Z,13.38
2022-10-23T20:57:31.979Z,13.35
2022-10-23T20:59:59.277Z,13.45
2022-10-23T21:02:25.989Z,13.43
2022-10-23T21:04:52.600Z,13.36
2022-10-23T21:07:20.750Z,13.23
2022-10-23T21:09:47.393Z,13.18
2022-10-23T21:12:13.968Z,13.13
2022-10-23T21:14:40.613Z,13.16
2022-10-23T21:17:08.739Z,13.00
2022-10-23T21:19:35.346Z,12.97
2022-10-23T21:22:02.033Z,13.13
2022-10-23T21:24:28.599Z,13.29
2022-10-23T21:26:55.184Z,13.32
2022-10-23T21:29:21.788Z,13.35
2022-10-23T21:31:56.947Z,13.16
2022-10-23T21:34:24.337Z,13.12
2022-10-23T21:37:11.950Z,13.13
2022-10-23T21:39:38.000Z,13.34
2022-10-23T21:42:04.787Z,13.36
2022-10-23T21:44:31.352Z,13.35
2022-10-23T21:46:57.899Z,13.33
2022-10-23T21:49:24.468Z,13.32
2022-10-23T21:51:51.038Z,13.27
2022-10-23T21:54:17.659Z,13.19
2022-10-23T21:56:45.373Z,13.16
2022-10-23T21:59:14.539Z,13.20
2022-10-23T22:01:45.343Z,13.23
2022-10-23T22:04:14.217Z,13.16
2022-10-23T22:06:47.825Z,13.25
2022-10-23T22:09:16.653Z,13.33
2022-10-23T22:11:43.333Z,13.33
2022-10-23T22:14:12.052Z,13.31
2022-10-23T22:16:38.749Z,13.37
2022-10-23T22:19:05.334Z,13.43
2022-10-23T22:21:31.997Z,13.46
2022-10-23T22:24:00.205Z,13.47
2022-10-23T22:26:30.265Z,13.42
2022-10-23T22:28:59.652Z,13.43
2022-10-23T22:31:29.475Z,13.43
2022-10-23T22:33:56.681Z,13.40
2022-10-23T22:36:23.531Z,13.31
2022-10-23T22:38:50.088Z,13.34
2022-10-23T22:41:17.303Z,13.30
2022-10-23T22:43:44.326Z,13.30
2022-10-23T22:46:16.404Z,13.46
2022-10-23T22:48:43.739Z,13.44
2022-10-23T22:51:15.839Z,13.54
2022-10-23T22:53:43.530Z,13.71
2022-10-23T22:56:13.217Z,13.81
2022-10-23T22:58:40.039Z,13.84
2022-10-23T23:01:16.564Z,13.69
2022-10-23T23:03:43.308Z,13.59
2022-10-23T23:06:12.655Z,13.60
2022-10-23T23:08:40.170Z,13.46
2022-10-23T23:11:08.407Z,13.37
2022-10-23T23:13:35.348Z,13.32
2022-10-23T23:16:02.659Z,13.38
2022-10-23T23:18:29.842Z,13.45
2022-10-23T23:21:04.007Z,13.47
2022-10-23T23:23:30.979Z,13.34
2022-10-23T23:25:58.128Z,13.19
2022-10-23T23:28:24.867Z,13.10
2022-10-23T23:31:02.752Z,13.07
2022-10-23T23:33:29.327Z,12.98
2022-10-23T23:35:55.971Z,12.81
2022-10-23T23:38:23.013Z,12.72
2022-10-23T23:40:57.813Z,12.58
2022-10-23T23:43:24.438Z,12.72
2022-10-23T23:45:53.857Z,12.60
2022-10-23T23:48:20.524Z,12.61
2022-10-23T23:50:47.167Z,12.50
2022-10-23T23:53:13.812Z,12.39
2022-10-23T23:55:40.625Z,12.34
2022-10-23T23:58:07.498Z,12.34
